sensor_id;sensor_type;location;lat;lon;timestamp;P1;durP1;ratioP1;P2;durP2;ratioP2
1721;SDS011;858;53.190;8.596;2023-03-30T00:01:20;39.13;;;30.63;;
1721;SDS011;858;53.190;8.596;2023-03-30T00:03:48;41.95;;;30.40;;
1721;SDS011;858;53.190;8.596;2023-03-30T00:06:15;41.47;;;29.73;;
1721;SDS011;858;53.190;8.596;2023-03-30T00:08:45;41.20;;;30.30;;
1721;SDS011;858;53.190;8.596;2023-03-30T00:11:12;39.05;;;29.70;;
1721;SDS011;858;53.190;8.596;2023-03-30T00:13:40;39.60;;;30.23;;
1721;SDS011;858;53.190;8.596;2023-03-30T00:16:07;40.75;;;29.80;;
1721;SDS011;858;53.190;8.596;2023-03-30T00:18:35;38.65;;;28.58;;
1721;SDS011;858;53.190;8.596;2023-03-30T00:21:04;37.30;;;28.08;;
1721;SDS011;858;53.190;8.596;2023-03-30T00:23:30;38.40;;;28.75;;
1721;SDS011;858;53.190;8.596;2023-03-30T00:25:57;38.13;;;28.35;;
1721;SDS011;858;53.190;8.596;2023-03-30T00:28:24;34.97;;;28.25;;
1721;SDS011;858;53.190;8.596;2023-03-30T00:30:54;39.15;;;28.38;;
1721;SDS011;858;53.190;8.596;2023-03-30T00:33:20;41.55;;;28.55;;
1721;SDS011;858;53.190;8.596;2023-03-30T00:35:52;40.80;;;29.45;;
1721;SDS011;858;53.190;8.596;2023-03-30T00:38:18;38.17;;;27.80;;
1721;SDS011;858;53.190;8.596;2023-03-30T00:40:49;38.90;;;28.40;;
1721;SDS011;858;53.190;8.596;2023-03-30T00:43:16;38.35;;;28.48;;
1721;SDS011;858;53.190;8.596;2023-03-30T00:45:42;41.85;;;28.55;;
1721;SDS011;858;53.190;8.596;2023-03-30T00:48:09;37.00;;;26.97;;
1721;SDS011;858;53.190;8.596;2023-03-30T00:50:40;35.33;;;27.88;;
1721;SDS011;858;53.190;8.596;2023-03-30T00:53:10;42.17;;;29.67;;
1721;SDS011;858;53.190;8.596;2023-03-30T00:55:40;40.35;;;29.58;;
1721;SDS011;858;53.190;8.596;2023-03-30T00:58:07;41.35;;;28.40;;
1721;SDS011;858;53.190;8.596;2023-03-30T01:00:35;36.90;;;26.92;;
1721;SDS011;858;53.190;8.596;2023-03-30T01:03:04;36.90;;;28.17;;
1721;SDS011;858;53.190;8.596;2023-03-30T01:05:32;37.93;;;27.73;;
1721;SDS011;858;53.190;8.596;2023-03-30T01:07:58;37.23;;;28.13;;
1721;SDS011;858;53.190;8.596;2023-03-30T01:10:27;37.95;;;27.17;;
1721;SDS011;858;53.190;8.596;2023-03-30T01:12:53;37.08;;;27.00;;
1721;SDS011;858;53.190;8.596;2023-03-30T01:15:20;37.55;;;27.38;;
1721;SDS011;858;53.190;8.596;2023-03-30T01:17:54;35.58;;;27.45;;
1721;SDS011;858;53.190;8.596;2023-03-30T01:23:24;36.53;;;26.88;;
1721;SDS011;858;53.190;8.596;2023-03-30T01:26:07;36.42;;;25.95;;
1721;SDS011;858;53.190;8.596;2023-03-30T01:28:39;32.92;;;25.58;;
1721;SDS011;858;53.190;8.596;2023-03-30T01:31:23;31.67;;;25.10;;
1721;SDS011;858;53.190;8.596;2023-03-30T01:36:48;34.45;;;23.90;;
1721;SDS011;858;53.190;8.596;2023-03-30T01:39:20;30.80;;;24.93;;
1721;SDS011;858;53.190;8.596;2023-03-30T01:41:53;32.60;;;23.58;;
1721;SDS011;858;53.190;8.596;2023-03-30T01:44:23;30.60;;;23.60;;
1721;SDS011;858;53.190;8.596;2023-03-30T01:46:53;28.50;;;23.00;;
1721;SDS011;858;53.190;8.596;2023-03-30T01:49:23;29.63;;;22.73;;
1721;SDS011;858;53.190;8.596;2023-03-30T01:51:54;28.70;;;22.80;;
1721;SDS011;858;53.190;8.596;2023-03-30T01:54:24;29.40;;;23.80;;
1721;SDS011;858;53.190;8.596;2023-03-30T01:56:53;30.25;;;22.23;;
1721;SDS011;858;53.190;8.596;2023-03-30T01:59:21;30.13;;;21.98;;
1721;SDS011;858;53.190;8.596;2023-03-30T02:01:49;28.70;;;21.70;;
1721;SDS011;858;53.190;8.596;2023-03-30T02:04:18;27.20;;;21.60;;
1721;SDS011;858;53.190;8.596;2023-03-30T02:06:47;28.27;;;21.55;;
1721;SDS011;858;53.190;8.596;2023-03-30T02:09:16;27.90;;;21.88;;
1721;SDS011;858;53.190;8.596;2023-03-30T02:11:45;26.07;;;20.40;;
1721;SDS011;858;53.190;8.596;2023-03-30T02:14:13;27.13;;;20.50;;
1721;SDS011;858;53.190;8.596;2023-03-30T02:16:40;25.80;;;20.02;;
1721;SDS011;858;53.190;8.596;2023-03-30T02:19:09;26.35;;;20.60;;
1721;SDS011;858;53.190;8.596;2023-03-30T02:21:36;29.27;;;21.23;;
1721;SDS011;858;53.190;8.596;2023-03-30T02:24:03;27.10;;;20.58;;
1721;SDS011;858;53.190;8.596;2023-03-30T02:26:31;28.35;;;21.88;;
1721;SDS011;858;53.190;8.596;2023-03-30T02:28:59;27.77;;;20.60;;
1721;SDS011;858;53.190;8.596;2023-03-30T02:31:25;24.38;;;19.50;;
1721;SDS011;858;53.190;8.596;2023-03-30T02:33:56;25.98;;;19.70;;
1721;SDS011;858;53.190;8.596;2023-03-30T02:36:31;24.38;;;18.60;;
1721;SDS011;858;53.190;8.596;2023-03-30T02:39:05;24.33;;;19.27;;
1721;SDS011;858;53.190;8.596;2023-03-30T02:41:46;26.73;;;18.95;;
1721;SDS011;858;53.190;8.596;2023-03-30T02:44:24;26.20;;;18.10;;
1721;SDS011;858;53.190;8.596;2023-03-30T02:46:56;25.17;;;18.88;;
1721;SDS011;858;53.190;8.596;2023-03-30T02:49:26;27.23;;;18.52;;
1721;SDS011;858;53.190;8.596;2023-03-30T02:52:00;24.15;;;18.00;;
1721;SDS011;858;53.190;8.596;2023-03-30T02:54:31;25.52;;;18.52;;
1721;SDS011;858;53.190;8.596;2023-03-30T02:57:04;23.80;;;18.80;;
1721;SDS011;858;53.190;8.596;2023-03-30T02:59:35;24.85;;;17.77;;
1721;SDS011;858;53.190;8.596;2023-03-30T03:02:03;22.58;;;17.80;;
1721;SDS011;858;53.190;8.596;2023-03-30T03:04:31;22.23;;;18.43;;
1721;SDS011;858;53.190;8.596;2023-03-30T03:06:58;27.42;;;19.02;;
1721;SDS011;858;53.190;8.596;2023-03-30T03:09:26;22.77;;;17.70;;
1721;SDS011;858;53.190;8.596;2023-03-30T03:11:53;22.50;;;17.75;;
1721;SDS011;858;53.190;8.596;2023-03-30T03:14:19;22.25;;;17.20;;
1721;SDS011;858;53.190;8.596;2023-03-30T03:16:47;23.77;;;17.67;;
1721;SDS011;858;53.190;8.596;2023-03-30T03:19:13;23.15;;;17.83;;
1721;SDS011;858;53.190;8.596;2023-03-30T03:21:41;21.95;;;17.42;;
1721;SDS011;858;53.190;8.596;2023-03-30T03:24:08;20.90;;;17.30;;
1721;SDS011;858;53.190;8.596;2023-03-30T03:26:37;22.30;;;17.42;;
1721;SDS011;858;53.190;8.596;2023-03-30T03:29:03;23.50;;;17.55;;
1721;SDS011;858;53.190;8.596;2023-03-30T03:31:30;21.77;;;17.10;;
1721;SDS011;858;53.190;8.596;2023-03-30T03:33:58;21.23;;;17.35;;
1721;SDS011;858;53.190;8.596;2023-03-30T03:36:24;23.60;;;17.20;;
1721;SDS011;858;53.190;8.596;2023-03-30T03:38:50;22.13;;;16.70;;
1721;SDS011;858;53.190;8.596;2023-03-30T03:41:17;22.25;;;16.67;;
1721;SDS011;858;53.190;8.596;2023-03-30T03:43:43;22.13;;;16.30;;
1721;SDS011;858;53.190;8.596;2023-03-30T03:46:10;23.65;;;17.70;;
1721;SDS011;858;53.190;8.596;2023-03-30T03:48:36;22.48;;;18.25;;
1721;SDS011;858;53.190;8.596;2023-03-30T03:51:05;19.83;;;16.77;;
1721;SDS011;858;53.190;8.596;2023-03-30T03:53:32;21.80;;;16.53;;
1721;SDS011;858;53.190;8.596;2023-03-30T03:55:59;22.15;;;15.93;;
1721;SDS011;858;53.190;8.596;2023-03-30T03:58:26;18.83;;;15.57;;
1721;SDS011;858;53.190;8.596;2023-03-30T04:00:56;21.45;;;15.50;;
1721;SDS011;858;53.190;8.596;2023-03-30T04:03:22;21.60;;;16.35;;
1721;SDS011;858;53.190;8.596;2023-03-30T04:05:49;20.05;;;15.38;;
1721;SDS011;858;53.190;8.596;2023-03-30T04:08:17;22.08;;;15.88;;
1721;SDS011;858;53.190;8.596;2023-03-30T04:10:43;21.45;;;15.90;;
1721;SDS011;858;53.190;8.596;2023-03-30T04:13:10;21.52;;;16.23;;
1721;SDS011;858;53.190;8.596;2023-03-30T04:15:36;18.88;;;14.98;;
1721;SDS011;858;53.190;8.596;2023-03-30T04:18:03;22.08;;;15.63;;
1721;SDS011;858;53.190;8.596;2023-03-30T04:20:29;21.40;;;15.90;;
1721;SDS011;858;53.190;8.596;2023-03-30T04:22:56;20.47;;;15.40;;
1721;SDS011;858;53.190;8.596;2023-03-30T04:25:27;19.00;;;14.60;;
1721;SDS011;858;53.190;8.596;2023-03-30T04:27:54;20.10;;;14.90;;
1721;SDS011;858;53.190;8.596;2023-03-30T04:30:21;18.77;;;14.10;;
1721;SDS011;858;53.190;8.596;2023-03-30T04:32:48;19.10;;;14.00;;
1721;SDS011;858;53.190;8.596;2023-03-30T04:35:26;17.53;;;13.30;;
1721;SDS011;858;53.190;8.596;2023-03-30T04:37:53;16.42;;;13.10;;
1721;SDS011;858;53.190;8.596;2023-03-30T04:40:19;15.65;;;12.27;;
1721;SDS011;858;53.190;8.596;2023-03-30T04:42:47;14.30;;;10.00;;
1721;SDS011;858;53.190;8.596;2023-03-30T04:45:14;14.05;;;10.68;;
1721;SDS011;858;53.190;8.596;2023-03-30T04:47:41;13.23;;;9.65;;
1721;SDS011;858;53.190;8.596;2023-03-30T04:50:08;10.77;;;8.98;;
1721;SDS011;858;53.190;8.596;2023-03-30T04:52:34;11.80;;;9.23;;
1721;SDS011;858;53.190;8.596;2023-03-30T04:55:01;10.15;;;8.43;;
1721;SDS011;858;53.190;8.596;2023-03-30T04:57:27;11.93;;;8.80;;
1721;SDS011;858;53.190;8.596;2023-03-30T04:59:56;12.10;;;8.38;;
1721;SDS011;858;53.190;8.596;2023-03-30T05:02:23;13.15;;;8.20;;
1721;SDS011;858;53.190;8.596;2023-03-30T05:04:49;13.48;;;8.45;;
1721;SDS011;858;53.190;8.596;2023-03-30T05:07:15;11.65;;;7.72;;
1721;SDS011;858;53.190;8.596;2023-03-30T05:09:42;14.13;;;7.50;;
1721;SDS011;858;53.190;8.596;2023-03-30T05:12:08;10.70;;;7.10;;
1721;SDS011;858;53.190;8.596;2023-03-30T05:14:35;12.27;;;7.38;;
1721;SDS011;858;53.190;8.596;2023-03-30T05:17:02;10.50;;;7.20;;
1721;SDS011;858;53.190;8.596;2023-03-30T05:19:29;12.63;;;7.55;;
1721;SDS011;858;53.190;8.596;2023-03-30T05:21:55;10.63;;;6.35;;
1721;SDS011;858;53.190;8.596;2023-03-30T05:24:21;8.20;;;6.00;;
1721;SDS011;858;53.190;8.596;2023-03-30T05:26:48;9.68;;;6.95;;
1721;SDS011;858;53.190;8.596;2023-03-30T05:29:14;10.45;;;6.05;;
1721;SDS011;858;53.190;8.596;2023-03-30T05:31:41;9.03;;;6.40;;
1721;SDS011;858;53.190;8.596;2023-03-30T05:34:09;10.68;;;8.00;;
1721;SDS011;858;53.190;8.596;2023-03-30T05:36:35;13.00;;;6.60;;
1721;SDS011;858;53.190;8.596;2023-03-30T05:39:02;9.40;;;6.20;;
1721;SDS011;858;53.190;8.596;2023-03-30T05:41:29;9.15;;;6.30;;
1721;SDS011;858;53.190;8.596;2023-03-30T05:43:55;9.53;;;6.30;;
1721;SDS011;858;53.190;8.596;2023-03-30T05:46:22;7.10;;;5.70;;
1721;SDS011;858;53.190;8.596;2023-03-30T05:48:50;9.45;;;6.97;;
1721;SDS011;858;53.190;8.596;2023-03-30T05:51:18;8.15;;;6.72;;
1721;SDS011;858;53.190;8.596;2023-03-30T05:53:44;9.85;;;6.20;;
1721;SDS011;858;53.190;8.596;2023-03-30T05:56:11;7.32;;;5.65;;
1721;SDS011;858;53.190;8.596;2023-03-30T05:58:38;11.82;;;6.10;;
1721;SDS011;858;53.190;8.596;2023-03-30T06:01:04;8.57;;;5.30;;
1721;SDS011;858;53.190;8.596;2023-03-30T06:03:33;8.73;;;6.30;;
1721;SDS011;858;53.190;8.596;2023-03-30T06:06:00;12.27;;;6.03;;
1721;SDS011;858;53.190;8.596;2023-03-30T06:08:27;10.40;;;6.50;;
1721;SDS011;858;53.190;8.596;2023-03-30T06:10:54;12.95;;;7.10;;
1721;SDS011;858;53.190;8.596;2023-03-30T06:13:21;10.50;;;5.90;;
1721;SDS011;858;53.190;8.596;2023-03-30T06:15:47;9.40;;;5.90;;
1721;SDS011;858;53.190;8.596;2023-03-30T06:18:14;9.52;;;5.50;;
1721;SDS011;858;53.190;8.596;2023-03-30T06:20:41;7.97;;;5.80;;
1721;SDS011;858;53.190;8.596;2023-03-30T06:23:07;9.70;;;5.30;;
1721;SDS011;858;53.190;8.596;2023-03-30T06:25:36;8.10;;;5.43;;
1721;SDS011;858;53.190;8.596;2023-03-30T06:28:02;8.35;;;5.38;;
1721;SDS011;858;53.190;8.596;2023-03-30T06:30:29;9.70;;;5.82;;
1721;SDS011;858;53.190;8.596;2023-03-30T06:32:56;8.98;;;5.32;;
1721;SDS011;858;53.190;8.596;2023-03-30T06:35:23;9.25;;;5.50;;
1721;SDS011;858;53.190;8.596;2023-03-30T06:37:49;9.00;;;5.30;;
1721;SDS011;858;53.190;8.596;2023-03-30T06:40:16;7.78;;;4.15;;
1721;SDS011;858;53.190;8.596;2023-03-30T06:42:44;8.68;;;5.18;;
1721;SDS011;858;53.190;8.596;2023-03-30T06:45:11;7.40;;;4.50;;
1721;SDS011;858;53.190;8.596;2023-03-30T06:47:37;9.43;;;5.35;;
1721;SDS011;858;53.190;8.596;2023-03-30T06:50:05;7.22;;;4.68;;
1721;SDS011;858;53.190;8.596;2023-03-30T06:52:32;8.68;;;4.93;;
1721;SDS011;858;53.190;8.596;2023-03-30T06:55:03;8.55;;;5.35;;
1721;SDS011;858;53.190;8.596;2023-03-30T06:57:29;8.27;;;5.00;;
1721;SDS011;858;53.190;8.596;2023-03-30T06:59:59;6.70;;;4.57;;
1721;SDS011;858;53.190;8.596;2023-03-30T07:02:25;9.23;;;4.93;;
1721;SDS011;858;53.190;8.596;2023-03-30T07:04:52;8.70;;;4.55;;
1721;SDS011;858;53.190;8.596;2023-03-30T07:07:18;7.47;;;4.57;;
1721;SDS011;858;53.190;8.596;2023-03-30T07:09:44;7.68;;;4.30;;
1721;SDS011;858;53.190;8.596;2023-03-30T07:12:11;6.93;;;4.50;;
1721;SDS011;858;53.190;8.596;2023-03-30T07:14:37;9.02;;;4.30;;
1721;SDS011;858;53.190;8.596;2023-03-30T07:17:06;7.35;;;4.60;;
1721;SDS011;858;53.190;8.596;2023-03-30T07:19:33;7.55;;;4.88;;
1721;SDS011;858;53.190;8.596;2023-03-30T07:22:00;10.30;;;4.97;;
1721;SDS011;858;53.190;8.596;2023-03-30T07:24:26;9.75;;;4.40;;
1721;SDS011;858;53.190;8.596;2023-03-30T07:26:53;8.95;;;4.68;;
1721;SDS011;858;53.190;8.596;2023-03-30T07:29:20;8.82;;;4.68;;
1721;SDS011;858;53.190;8.596;2023-03-30T07:31:46;7.32;;;4.30;;
1721;SDS011;858;53.190;8.596;2023-03-30T07:34:14;7.53;;;4.60;;
1721;SDS011;858;53.190;8.596;2023-03-30T07:36:41;7.07;;;4.68;;
1721;SDS011;858;53.190;8.596;2023-03-30T07:39:07;9.55;;;4.32;;
1721;SDS011;858;53.190;8.596;2023-03-30T07:41:33;9.05;;;5.00;;
1721;SDS011;858;53.190;8.596;2023-03-30T07:44:00;7.93;;;4.90;;
1721;SDS011;858;53.190;8.596;2023-03-30T07:46:26;7.53;;;5.13;;
1721;SDS011;858;53.190;8.596;2023-03-30T07:48:52;7.95;;;4.88;;
1721;SDS011;858;53.190;8.596;2023-03-30T07:51:20;7.07;;;4.57;;
1721;SDS011;858;53.190;8.596;2023-03-30T07:53:46;5.75;;;4.28;;
1721;SDS011;858;53.190;8.596;2023-03-30T07:56:13;8.70;;;4.40;;
1721;SDS011;858;53.190;8.596;2023-03-30T07:58:40;8.88;;;4.80;;
1721;SDS011;858;53.190;8.596;2023-03-30T08:01:07;10.70;;;4.28;;
1721;SDS011;858;53.190;8.596;2023-03-30T08:03:33;8.82;;;4.18;;
1721;SDS011;858;53.190;8.596;2023-03-30T08:06:01;8.18;;;4.30;;
1721;SDS011;858;53.190;8.596;2023-03-30T08:08:31;7.38;;;3.60;;
1721;SDS011;858;53.190;8.596;2023-03-30T08:10:57;7.65;;;4.20;;
1721;SDS011;858;53.190;8.596;2023-03-30T08:13:23;7.80;;;3.60;;
1721;SDS011;858;53.190;8.596;2023-03-30T08:15:50;5.60;;;3.40;;
1721;SDS011;858;53.190;8.596;2023-03-30T08:18:18;9.75;;;3.83;;
1721;SDS011;858;53.190;8.596;2023-03-30T08:20:48;7.03;;;3.30;;
1721;SDS011;858;53.190;8.596;2023-03-30T08:23:15;6.82;;;3.88;;
1721;SDS011;858;53.190;8.596;2023-03-30T08:25:43;8.83;;;3.90;;
1721;SDS011;858;53.190;8.596;2023-03-30T08:28:11;9.20;;;3.80;;
1721;SDS011;858;53.190;8.596;2023-03-30T08:30:38;4.70;;;3.55;;
1721;SDS011;858;53.190;8.596;2023-03-30T08:33:04;9.45;;;3.75;;
1721;SDS011;858;53.190;8.596;2023-03-30T08:35:33;8.73;;;4.47;;
1721;SDS011;858;53.190;8.596;2023-03-30T08:37:59;7.70;;;4.10;;
1721;SDS011;858;53.190;8.596;2023-03-30T08:40:26;6.38;;;3.90;;
1721;SDS011;858;53.190;8.596;2023-03-30T08:45:43;7.17;;;4.10;;
1721;SDS011;858;53.190;8.596;2023-03-30T08:48:14;8.75;;;4.00;;
1721;SDS011;858;53.190;8.596;2023-03-30T08:50:42;8.07;;;4.10;;
1721;SDS011;858;53.190;8.596;2023-03-30T08:53:11;5.57;;;3.40;;
1721;SDS011;858;53.190;8.596;2023-03-30T08:55:38;8.65;;;3.67;;
1721;SDS011;858;53.190;8.596;2023-03-30T08:58:08;7.88;;;3.35;;
1721;SDS011;858;53.190;8.596;2023-03-30T09:00:39;7.47;;;3.40;;
1721;SDS011;858;53.190;8.596;2023-03-30T09:03:12;8.02;;;3.90;;
1721;SDS011;858;53.190;8.596;2023-03-30T09:05:41;5.93;;;3.30;;
1721;SDS011;858;53.190;8.596;2023-03-30T09:08:11;5.43;;;3.03;;
1721;SDS011;858;53.190;8.596;2023-03-30T09:10:40;8.57;;;3.35;;
1721;SDS011;858;53.190;8.596;2023-03-30T09:13:09;6.45;;;3.20;;
1721;SDS011;858;53.190;8.596;2023-03-30T09:15:38;5.30;;;3.00;;
1721;SDS011;858;53.190;8.596;2023-03-30T09:18:09;6.40;;;3.25;;
1721;SDS011;858;53.190;8.596;2023-03-30T09:20:38;6.60;;;2.90;;
1721;SDS011;858;53.190;8.596;2023-03-30T09:23:05;5.65;;;3.00;;
1721;SDS011;858;53.190;8.596;2023-03-30T09:25:37;6.60;;;3.20;;
1721;SDS011;858;53.190;8.596;2023-03-30T09:28:07;6.85;;;3.42;;
1721;SDS011;858;53.190;8.596;2023-03-30T09:30:38;7.13;;;3.50;;
1721;SDS011;858;53.190;8.596;2023-03-30T09:33:06;11.30;;;3.67;;
1721;SDS011;858;53.190;8.596;2023-03-30T09:35:36;7.10;;;3.00;;
1721;SDS011;858;53.190;8.596;2023-03-30T09:38:06;7.95;;;3.70;;
1721;SDS011;858;53.190;8.596;2023-03-30T09:40:36;7.03;;;3.30;;
1721;SDS011;858;53.190;8.596;2023-03-30T09:43:07;12.20;;;3.10;;
1721;SDS011;858;53.190;8.596;2023-03-30T09:45:35;6.88;;;3.05;;
1721;SDS011;858;53.190;8.596;2023-03-30T09:48:03;6.75;;;2.92;;
1721;SDS011;858;53.190;8.596;2023-03-30T09:50:32;8.60;;;2.80;;
1721;SDS011;858;53.190;8.596;2023-03-30T09:53:03;11.20;;;2.90;;
1721;SDS011;858;53.190;8.596;2023-03-30T09:55:33;6.25;;;3.30;;
1721;SDS011;858;53.190;8.596;2023-03-30T09:58:10;8.05;;;3.47;;
1721;SDS011;858;53.190;8.596;2023-03-30T10:00:37;9.07;;;3.85;;
1721;SDS011;858;53.190;8.596;2023-03-30T10:03:04;10.52;;;3.35;;
1721;SDS011;858;53.190;8.596;2023-03-30T10:05:33;7.90;;;3.00;;
1721;SDS011;858;53.190;8.596;2023-03-30T10:08:01;7.18;;;2.70;;
1721;SDS011;858;53.190;8.596;2023-03-30T10:10:31;8.60;;;2.40;;
1721;SDS011;858;53.190;8.596;2023-03-30T10:13:04;7.55;;;2.60;;
1721;SDS011;858;53.190;8.596;2023-03-30T10:15:31;8.23;;;3.20;;
1721;SDS011;858;53.190;8.596;2023-03-30T10:18:00;8.27;;;2.50;;
1721;SDS011;858;53.190;8.596;2023-03-30T10:20:29;10.30;;;3.17;;
1721;SDS011;858;53.190;8.596;2023-03-30T10:23:00;8.00;;;2.90;;
1721;SDS011;858;53.190;8.596;2023-03-30T10:25:28;11.80;;;3.00;;
1721;SDS011;858;53.190;8.596;2023-03-30T10:27:56;9.77;;;3.03;;
1721;SDS011;858;53.190;8.596;2023-03-30T10:30:26;7.95;;;2.85;;
1721;SDS011;858;53.190;8.596;2023-03-30T10:32:54;6.88;;;3.00;;
1721;SDS011;858;53.190;8.596;2023-03-30T10:35:22;7.05;;;3.22;;
1721;SDS011;858;53.190;8.596;2023-03-30T10:37:50;8.85;;;3.28;;
1721;SDS011;858;53.190;8.596;2023-03-30T10:40:18;9.27;;;2.90;;
1721;SDS011;858;53.190;8.596;2023-03-30T10:42:46;7.32;;;3.25;;
1721;SDS011;858;53.190;8.596;2023-03-30T10:45:14;6.95;;;3.05;;
1721;SDS011;858;53.190;8.596;2023-03-30T10:47:49;10.57;;;3.00;;
1721;SDS011;858;53.190;8.596;2023-03-30T10:50:21;7.45;;;2.97;;
1721;SDS011;858;53.190;8.596;2023-03-30T10:52:53;6.50;;;2.30;;
1721;SDS011;858;53.190;8.596;2023-03-30T10:55:22;8.13;;;2.80;;
1721;SDS011;858;53.190;8.596;2023-03-30T10:57:51;6.30;;;2.90;;
1721;SDS011;858;53.190;8.596;2023-03-30T11:00:21;8.93;;;3.10;;
1721;SDS011;858;53.190;8.596;2023-03-30T11:02:55;7.45;;;3.60;;
1721;SDS011;858;53.190;8.596;2023-03-30T11:05:24;10.23;;;3.80;;
1721;SDS011;858;53.190;8.596;2023-03-30T11:07:53;13.68;;;4.50;;
1721;SDS011;858;53.190;8.596;2023-03-30T11:10:21;10.67;;;4.13;;
1721;SDS011;858;53.190;8.596;2023-03-30T11:12:53;14.43;;;3.92;;
1721;SDS011;858;53.190;8.596;2023-03-30T11:15:21;13.30;;;3.70;;
1721;SDS011;858;53.190;8.596;2023-03-30T11:17:54;13.47;;;3.50;;
1721;SDS011;858;53.190;8.596;2023-03-30T11:20:24;12.73;;;3.97;;
1721;SDS011;858;53.190;8.596;2023-03-30T11:22:53;13.27;;;3.95;;
1721;SDS011;858;53.190;8.596;2023-03-30T11:25:21;16.80;;;3.50;;
1721;SDS011;858;53.190;8.596;2023-03-30T11:27:50;11.27;;;3.78;;
1721;SDS011;858;53.190;8.596;2023-03-30T11:30:20;13.73;;;3.85;;
1721;SDS011;858;53.190;8.596;2023-03-30T11:32:48;15.38;;;4.13;;
1721;SDS011;858;53.190;8.596;2023-03-30T11:35:24;15.00;;;3.40;;
1721;SDS011;858;53.190;8.596;2023-03-30T11:37:53;11.18;;;3.92;;
1721;SDS011;858;53.190;8.596;2023-03-30T11:40:23;14.82;;;4.50;;
1721;SDS011;858;53.190;8.596;2023-03-30T11:42:51;12.57;;;3.70;;
1721;SDS011;858;53.190;8.596;2023-03-30T11:45:20;14.57;;;3.78;;
1721;SDS011;858;53.190;8.596;2023-03-30T11:47:56;16.13;;;4.15;;
1721;SDS011;858;53.190;8.596;2023-03-30T11:50:35;11.60;;;3.30;;
1721;SDS011;858;53.190;8.596;2023-03-30T11:53:05;12.75;;;3.40;;
1721;SDS011;858;53.190;8.596;2023-03-30T11:55:47;12.95;;;3.00;;
1721;SDS011;858;53.190;8.596;2023-03-30T11:58:19;12.50;;;3.30;;
1721;SDS011;858;53.190;8.596;2023-03-30T12:00:50;11.82;;;3.35;;
1721;SDS011;858;53.190;8.596;2023-03-30T12:03:25;14.07;;;3.67;;
1721;SDS011;858;53.190;8.596;2023-03-30T12:05:56;11.25;;;3.20;;
1721;SDS011;858;53.190;8.596;2023-03-30T12:08:30;16.00;;;3.85;;
1721;SDS011;858;53.190;8.596;2023-03-30T12:11:01;12.93;;;3.60;;
1721;SDS011;858;53.190;8.596;2023-03-30T12:13:31;8.57;;;3.20;;
1721;SDS011;858;53.190;8.596;2023-03-30T12:15:59;11.75;;;2.80;;
1721;SDS011;858;53.190;8.596;2023-03-30T12:18:28;10.13;;;2.60;;
1721;SDS011;858;53.190;8.596;2023-03-30T12:21:01;11.07;;;3.08;;
1721;SDS011;858;53.190;8.596;2023-03-30T12:23:33;10.93;;;3.22;;
1721;SDS011;858;53.190;8.596;2023-03-30T12:26:05;10.02;;;3.05;;
1721;SDS011;858;53.190;8.596;2023-03-30T12:28:42;13.05;;;3.75;;
1721;SDS011;858;53.190;8.596;2023-03-30T12:31:08;7.90;;;2.30;;
1721;SDS011;858;53.190;8.596;2023-03-30T12:33:35;9.23;;;3.08;;
1721;SDS011;858;53.190;8.596;2023-03-30T12:36:21;10.32;;;2.20;;
1721;SDS011;858;53.190;8.596;2023-03-30T12:38:51;8.20;;;2.47;;
1721;SDS011;858;53.190;8.596;2023-03-30T12:41:22;7.17;;;2.00;;
1721;SDS011;858;53.190;8.596;2023-03-30T12:44:00;7.28;;;2.58;;
1721;SDS011;858;53.190;8.596;2023-03-30T12:46:29;8.57;;;2.30;;
1721;SDS011;858;53.190;8.596;2023-03-30T12:49:00;6.90;;;1.95;;
1721;SDS011;858;53.190;8.596;2023-03-30T12:54:23;7.40;;;2.30;;
1721;SDS011;858;53.190;8.596;2023-03-30T12:56:54;9.40;;;2.47;;
1721;SDS011;858;53.190;8.596;2023-03-30T13:02:25;7.65;;;2.20;;
1721;SDS011;858;53.190;8.596;2023-03-30T13:04:55;10.60;;;2.30;;
1721;SDS011;858;53.190;8.596;2023-03-30T13:07:22;7.97;;;2.43;;
1721;SDS011;858;53.190;8.596;2023-03-30T13:09:52;14.03;;;2.97;;
1721;SDS011;858;53.190;8.596;2023-03-30T13:12:36;9.40;;;2.50;;
1721;SDS011;858;53.190;8.596;2023-03-30T13:15:04;10.02;;;2.50;;
1721;SDS011;858;53.190;8.596;2023-03-30T13:17:48;7.10;;;2.47;;
1721;SDS011;858;53.190;8.596;2023-03-30T13:20:26;5.97;;;2.13;;
1721;SDS011;858;53.190;8.596;2023-03-30T13:25:42;9.48;;;2.60;;
1721;SDS011;858;53.190;8.596;2023-03-30T13:28:35;10.07;;;2.55;;
1721;SDS011;858;53.190;8.596;2023-03-30T13:31:05;7.78;;;3.03;;
1721;SDS011;858;53.190;8.596;2023-03-30T13:33:34;9.70;;;2.47;;
1721;SDS011;858;53.190;8.596;2023-03-30T13:36:03;9.45;;;2.60;;
1721;SDS011;858;53.190;8.596;2023-03-30T13:38:35;7.05;;;2.40;;
1721;SDS011;858;53.190;8.596;2023-03-30T13:41:17;10.80;;;2.42;;
1721;SDS011;858;53.190;8.596;2023-03-30T13:43:49;12.23;;;2.80;;
1721;SDS011;858;53.190;8.596;2023-03-30T13:46:19;9.43;;;2.87;;
1721;SDS011;858;53.190;8.596;2023-03-30T13:48:53;13.32;;;2.80;;
1721;SDS011;858;53.190;8.596;2023-03-30T13:51:22;10.45;;;2.90;;
1721;SDS011;858;53.190;8.596;2023-03-30T13:53:50;10.23;;;2.60;;
1721;SDS011;858;53.190;8.596;2023-03-30T13:56:19;14.20;;;3.08;;
1721;SDS011;858;53.190;8.596;2023-03-30T13:58:47;8.80;;;2.47;;
1721;SDS011;858;53.190;8.596;2023-03-30T14:01:19;8.23;;;2.60;;
1721;SDS011;858;53.190;8.596;2023-03-30T14:03:47;6.85;;;2.30;;
1721;SDS011;858;53.190;8.596;2023-03-30T14:06:14;9.55;;;2.55;;
1721;SDS011;858;53.190;8.596;2023-03-30T14:08:42;8.32;;;2.40;;
1721;SDS011;858;53.190;8.596;2023-03-30T14:11:12;7.97;;;2.35;;
1721;SDS011;858;53.190;8.596;2023-03-30T14:13:40;8.10;;;2.10;;
1721;SDS011;858;53.190;8.596;2023-03-30T14:16:07;8.77;;;2.70;;
1721;SDS011;858;53.190;8.596;2023-03-30T14:18:35;8.80;;;2.25;;
1721;SDS011;858;53.190;8.596;2023-03-30T14:21:02;7.63;;;2.30;;
1721;SDS011;858;53.190;8.596;2023-03-30T14:23:33;9.23;;;2.00;;
1721;SDS011;858;53.190;8.596;2023-03-30T14:26:01;8.43;;;2.63;;
1721;SDS011;858;53.190;8.596;2023-03-30T14:28:30;11.02;;;2.10;;
1721;SDS011;858;53.190;8.596;2023-03-30T14:31:00;7.20;;;2.40;;
1721;SDS011;858;53.190;8.596;2023-03-30T14:33:29;9.52;;;2.38;;
1721;SDS011;858;53.190;8.596;2023-03-30T14:35:57;9.07;;;2.67;;
1721;SDS011;858;53.190;8.596;2023-03-30T14:38:24;9.90;;;2.70;;
1721;SDS011;858;53.190;8.596;2023-03-30T14:40:52;9.27;;;2.67;;
1721;SDS011;858;53.190;8.596;2023-03-30T14:43:20;11.80;;;2.95;;
1721;SDS011;858;53.190;8.596;2023-03-30T14:45:50;9.95;;;3.00;;
1721;SDS011;858;53.190;8.596;2023-03-30T14:48:23;11.57;;;3.22;;
1721;SDS011;858;53.190;8.596;2023-03-30T14:50:51;11.93;;;2.90;;
1721;SDS011;858;53.190;8.596;2023-03-30T14:53:18;7.00;;;2.50;;
1721;SDS011;858;53.190;8.596;2023-03-30T14:55:45;6.90;;;2.30;;
1721;SDS011;858;53.190;8.596;2023-03-30T14:58:12;8.45;;;2.90;;
1721;SDS011;858;53.190;8.596;2023-03-30T15:00:39;9.60;;;3.00;;
1721;SDS011;858;53.190;8.596;2023-03-30T15:03:07;10.40;;;3.22;;
1721;SDS011;858;53.190;8.596;2023-03-30T15:05:36;7.65;;;2.85;;
1721;SDS011;858;53.190;8.596;2023-03-30T15:08:04;8.30;;;2.80;;
1721;SDS011;858;53.190;8.596;2023-03-30T15:10:34;7.85;;;3.10;;
1721;SDS011;858;53.190;8.596;2023-03-30T15:13:02;10.45;;;3.10;;
1721;SDS011;858;53.190;8.596;2023-03-30T15:15:31;9.95;;;2.75;;
1721;SDS011;858;53.190;8.596;2023-03-30T15:18:00;8.32;;;2.58;;
1721;SDS011;858;53.190;8.596;2023-03-30T15:20:28;16.17;;;3.50;;
1721;SDS011;858;53.190;8.596;2023-03-30T15:22:56;10.43;;;2.85;;
1721;SDS011;858;53.190;8.596;2023-03-30T15:25:27;9.80;;;2.97;;
1721;SDS011;858;53.190;8.596;2023-03-30T15:27:56;11.23;;;3.22;;
1721;SDS011;858;53.190;8.596;2023-03-30T15:30:25;12.50;;;3.10;;
1721;SDS011;858;53.190;8.596;2023-03-30T15:32:53;10.17;;;2.70;;
1721;SDS011;858;53.190;8.596;2023-03-30T15:35:21;13.18;;;3.00;;
1721;SDS011;858;53.190;8.596;2023-03-30T15:37:51;13.83;;;3.90;;
1721;SDS011;858;53.190;8.596;2023-03-30T15:40:32;12.73;;;3.00;;
1721;SDS011;858;53.190;8.596;2023-03-30T15:43:12;12.02;;;3.30;;
1721;SDS011;858;53.190;8.596;2023-03-30T15:45:38;11.23;;;3.33;;